Time;durP1;ratioP1;P1;durP2;ratioP2;P2;SDS_P1;SDS_P2;PMS_P1;PMS_P2;Temp;Humidity;BMP_temperature;BMP_pressure;BME280_temperature;BME280_humidity;BME280_pressure;Samples;Min_cycle;Max_cycle;Signal;HPM_P1;HPM_P2
2021/11/06 00:01:47;;;;;;;;;27.00;21.00;;;;;7.51;68.88;102327.00;5076069;28;55499;-61
2021/11/06 00:04:12;;;;;;;;;25.75;23.25;;;;;7.49;68.48;102326.25;5076472;28;46015;-61
2021/11/06 00:06:39;;;;;;;;;26.75;23.75;;;;;7.45;68.23;102329.91;5075673;28;64904;-61
2021/11/06 00:09:05;;;;;;;;;21.75;20.50;;;;;7.43;68.27;102331.75;5076735;27;45336;-60
2021/11/06 00:11:31;;;;;;;;;23.00;21.75;;;;;7.43;68.38;102331.75;5076436;28;47572;-60
2021/11/06 00:13:56;;;;;;;;;21.50;21.00;;;;;7.45;68.23;102335.16;5076289;28;46129;-60
2021/11/06 00:16:22;;;;;;;;;23.25;20.00;;;;;7.48;68.41;102331.56;5076257;28;45350;-60
2021/11/06 00:18:47;;;;;;;;;25.25;18.25;;;;;7.48;68.22;102332.38;5074213;28;65517;-60
2021/11/06 00:21:12;;;;;;;;;17.50;17.50;;;;;7.47;68.40;102333.31;5075997;28;59613;-60
2021/11/06 00:23:38;;;;;;;;;16.00;15.25;;;;;7.45;68.70;102340.38;5075112;28;68814;-60
2021/11/06 00:26:03;;;;;;;;;18.25;17.50;;;;;7.45;68.53;102336.94;5075617;28;58375;-60
2021/11/06 00:28:28;;;;;;;;;19.00;17.25;;;;;7.45;68.51;102339.53;5075610;28;60020;-59
2021/11/06 00:30:54;;;;;;;;;20.75;18.75;;;;;7.43;68.25;102342.22;5075852;27;53225;-60
2021/11/06 00:33:19;;;;;;;;;22.75;19.25;;;;;7.41;68.20;102337.06;5075173;28;70748;-61
2021/11/06 00:35:45;;;;;;;;;22.00;17.75;;;;;7.39;68.14;102333.69;5075889;28;51619;-60
2021/11/06 00:38:10;;;;;;;;;21.00;20.00;;;;;7.39;68.16;102335.47;5076226;28;45527;-60
2021/11/06 00:40:36;;;;;;;;;21.75;18.75;;;;;7.38;68.29;102326.75;5076058;27;45495;-60
2021/11/06 00:43:01;;;;;;;;;21.00;19.00;;;;;7.38;68.49;102333.75;5075175;28;67386;-60
2021/11/06 00:45:26;;;;;;;;;23.75;21.00;;;;;7.38;68.24;102328.53;5075285;28;60760;-59
2021/11/06 00:47:52;;;;;;;;;24.00;21.50;;;;;7.36;68.53;102330.38;5076129;28;45329;-60
2021/11/06 00:50:18;;;;;;;;;28.00;22.00;;;;;7.35;68.45;102328.66;5075795;27;45533;-60
2021/11/06 00:52:44;;;;;;;;;22.50;21.00;;;;;7.31;68.67;102327.94;5075772;28;46214;-60
2021/11/06 00:55:10;;;;;;;;;33.75;31.00;;;;;7.30;68.70;102322.78;5075849;27;45359;-60
2021/11/06 00:57:35;;;;;;;;;32.00;26.50;;;;;7.28;68.86;102323.72;5075697;27;46520;-60
2021/11/06 01:00:01;;;;;;;;;39.00;30.75;;;;;7.30;68.76;102322.78;5075474;28;53022;-61
2021/11/06 01:02:26;;;;;;;;;36.25;31.75;;;;;7.29;68.66;102321.94;5075751;28;45434;-60
2021/11/06 01:04:52;;;;;;;;;40.75;33.50;;;;;7.26;68.69;102320.31;5075389;28;59228;-60
2021/11/06 01:07:17;;;;;;;;;35.75;32.25;;;;;7.25;68.79;102312.53;5077440;28;64451;-61
2021/11/06 01:09:42;;;;;;;;;41.50;33.00;;;;;7.25;68.80;102309.91;5078166;28;45266;-60
2021/11/06 01:12:08;;;;;;;;;38.00;33.50;;;;;7.24;68.81;102309.09;5078361;28;66203;-60
2021/11/06 01:14:33;;;;;;;;;44.50;34.75;;;;;7.23;68.75;102310.00;5078547;28;55329;-61
2021/11/06 01:16:59;;;;;;;;;44.50;34.75;;;;;7.21;68.66;102311.84;5079438;27;45275;-59
2021/11/06 01:19:24;;;;;;;;;37.25;30.25;;;;;7.20;68.55;102315.38;5078502;27;58522;-60
2021/11/06 01:21:49;;;;;;;;;35.25;30.50;;;;;7.16;67.93;102312.94;5077961;27;69245;-60
2021/11/06 01:24:15;;;;;;;;;37.50;30.75;;;;;7.11;67.54;102318.41;5078235;27;59132;-60
2021/11/06 01:26:40;;;;;;;;;42.75;34.00;;;;;7.03;67.58;102313.53;5077758;28;45374;-61
2021/11/06 01:29:06;;;;;;;;;41.00;34.25;;;;;7.03;67.98;102323.97;5077048;28;63539;-59
2021/11/06 01:31:31;;;;;;;;;37.25;30.00;;;;;7.03;67.51;102315.28;5077983;27;70004;-60
2021/11/06 01:33:57;;;;;;;;;32.75;28.00;;;;;7.00;67.20;102323.25;5078389;28;57048;-61
2021/11/06 01:36:22;;;;;;;;;38.00;32.00;;;;;6.93;67.06;102320.91;5078015;28;63088;-60
2021/11/06 01:38:47;;;;;;;;;34.25;29.25;;;;;6.89;66.93;102315.91;5077982;28;60377;-60
2021/11/06 01:41:13;;;;;;;;;31.00;28.25;;;;;6.82;66.96;102310.94;5077986;28;60011;-61
2021/11/06 01:43:38;;;;;;;;;35.75;30.00;;;;;6.79;66.62;102308.47;5078504;28;47697;-60
2021/11/06 01:46:04;;;;;;;;;32.25;31.00;;;;;6.75;66.80;102304.28;5078811;28;45430;-60
2021/11/06 01:48:30;;;;;;;;;33.50;30.75;;;;;6.72;66.72;102314.03;5077369;28;45482;-60
2021/11/06 01:50:56;;;;;;;;;32.75;29.25;;;;;6.66;66.62;102310.78;5078401;27;48036;-61
2021/11/06 01:53:21;;;;;;;;;42.25;32.50;;;;;6.65;66.61;102313.44;5078429;27;45386;-60
2021/11/06 01:55:47;;;;;;;;;7.00;2.00;;;;;6.67;66.71;102306.38;5078697;27;45326;-60
2021/11/06 01:58:12;;;;;;;;;46.00;34.25;;;;;6.68;67.12;102306.31;5078498;28;45409;-60
2021/11/06 02:00:38;;;;;;;;;39.75;34.50;;;;;6.70;67.22;102314.09;5077814;28;57600;-60
2021/11/06 02:03:04;;;;;;;;;34.25;30.50;;;;;6.70;67.20;102311.47;5078445;27;45211;-60
2021/11/06 02:05:29;;;;;;;;;40.25;34.00;;;;;6.69;67.27;102309.78;5076633;27;56963;-60
2021/11/06 02:07:54;;;;;;;;;41.75;35.00;;;;;6.70;67.35;102310.63;5078571;28;45245;-60
2021/11/06 02:10:20;;;;;;;;;38.25;33.00;;;;;6.69;67.52;102307.16;5077293;28;68519;-60
2021/11/06 02:12:45;;;;;;;;;53.50;40.75;;;;;6.67;67.58;102312.47;5078233;28;45232;-60
2021/11/06 02:15:12;;;;;;;;;55.75;44.50;;;;;6.67;67.60;102303.75;5078313;28;45220;-60
2021/11/06 02:17:38;;;;;;;;;51.50;39.25;;;;;6.66;67.82;102302.06;5077341;28;45551;-60
2021/11/06 02:20:04;;;;;;;;;42.25;36.75;;;;;6.64;67.65;102307.38;5077213;28;69800;-60
2021/11/06 02:22:30;;;;;;;;;39.00;34.75;;;;;6.64;67.39;102312.59;5076021;28;45339;-61
2021/11/06 02:24:57;;;;;;;;;41.25;36.50;;;;;6.60;66.96;102316.25;5077841;27;45373;-61
2021/11/06 02:27:22;;;;;;;;;44.50;35.50;;;;;6.55;66.54;102310.38;5078118;28;45239;-60
2021/11/06 02:29:48;;;;;;;;;41.50;34.25;;;;;6.48;66.47;102322.88;5076350;28;47054;-60
2021/11/06 02:32:13;;;;;;;;;46.00;37.00;;;;;6.44;66.46;102307.38;5077307;27;62508;-61
2021/11/06 02:34:38;;;;;;;;;42.00;35.00;;;;;6.39;66.37;102318.84;5077196;28;60266;-61
2021/11/06 02:37:07;;;;;;;;;38.25;34.75;;;;;6.36;66.44;102313.75;5077088;27;63781;-59
2021/11/06 02:39:32;;;;;;;;;38.75;31.50;;;;;6.35;66.49;102319.06;5077683;28;46345;-60
2021/11/06 02:42:03;;;;;;;;;40.75;32.50;;;;;6.32;66.63;102321.78;5077699;27;45303;-60
2021/11/06 02:44:29;;;;;;;;;42.25;34.00;;;;;6.26;66.10;102315.09;5077652;27;45230;-60
2021/11/06 02:46:54;;;;;;;;;39.25;31.75;;;;;6.22;66.11;102313.50;5077190;28;58415;-60
2021/11/06 02:49:20;;;;;;;;;37.75;30.50;;;;;6.18;66.03;102309.31;5077392;28;51466;-60
2021/11/06 02:51:45;;;;;;;;;33.75;29.25;;;;;6.13;65.84;102298.22;5077740;27;45216;-60
2021/11/06 02:54:10;;;;;;;;;29.25;25.75;;;;;6.10;66.15;102304.41;5076965;28;58145;-60
2021/11/06 02:56:36;;;;;;;;;33.25;31.00;;;;;6.06;65.92;102301.09;5077652;27;45220;-59
2021/11/06 02:59:01;;;;;;;;;36.50;30.75;;;;;6.01;65.90;102305.63;5077360;28;45250;-60
2021/11/06 03:01:27;;;;;;;;;31.00;26.25;;;;;5.97;65.85;102300.59;5076724;28;67187;-60
2021/11/06 03:03:52;;;;;;;;;32.50;26.50;;;;;5.91;65.80;102306.88;5077421;28;45341;-60
2021/11/06 03:06:17;;;;;;;;;35.00;30.50;;;;;5.88;65.99;102312.22;5077001;28;52891;-60
2021/11/06 03:08:43;;;;;;;;;30.75;30.00;;;;;5.84;66.02;102311.50;5076826;28;53011;-60
2021/11/06 03:11:09;;;;;;;;;36.25;29.25;;;;;5.85;66.33;102309.75;5077144;27;45948;-60
2021/11/06 03:13:35;;;;;;;;;32.50;28.75;;;;;5.87;66.38;102315.75;5076664;28;59710;-60
2021/11/06 03:16:01;;;;;;;;;34.00;30.75;;;;;5.89;66.43;102319.13;5077472;27;45248;-61
2021/11/06 03:18:26;;;;;;;;;30.25;28.50;;;;;5.90;66.58;102320.84;5077084;28;45446;-61
2021/11/06 03:20:52;;;;;;;;;33.00;28.00;;;;;5.88;66.07;102327.88;5077218;28;45397;-59
2021/11/06 03:23:17;;;;;;;;;35.25;29.25;;;;;5.85;66.15;102341.03;5077210;28;45875;-60
2021/11/06 03:25:43;;;;;;;;;38.00;31.50;;;;;5.86;66.36;102333.16;5076677;27;45568;-60
2021/11/06 03:28:08;;;;;;;;;39.75;34.75;;;;;5.88;66.50;102330.50;5076911;28;45578;-60
2021/11/06 03:30:34;;;;;;;;;41.00;35.00;;;;;5.90;66.43;102313.00;5076733;28;45349;-60
2021/11/06 03:32:59;;;;;;;;;33.25;30.50;;;;;5.89;66.20;102317.41;5075402;28;49825;-60
2021/11/06 03:35:24;;;;;;;;;28.75;28.50;;;;;5.86;65.68;102319.25;5076250;28;62810;-60
2021/11/06 03:37:50;;;;;;;;;30.75;27.25;;;;;5.81;65.97;102321.22;5076524;28;46077;-60
2021/11/06 03:40:15;;;;;;;;;34.00;31.50;;;;;5.74;65.82;102316.25;5076097;28;68161;-60
2021/11/06 03:42:41;;;;;;;;;37.00;32.25;;;;;5.74;66.29;102320.59;5076971;28;45277;-60
2021/11/06 03:45:08;;;;;;;;;30.00;28.75;;;;;5.74;65.74;102323.22;5076898;28;45164;-60
2021/11/06 03:47:34;;;;;;;;;33.75;28.75;;;;;5.71;65.67;102321.59;5076759;27;46566;-60
2021/11/06 03:50:00;;;;;;;;;27.00;22.25;;;;;5.67;65.37;102317.41;5076510;28;45280;-60
2021/11/06 03:52:25;;;;;;;;;30.00;25.50;;;;;5.61;65.39;102321.09;5076711;28;45323;-61
2021/11/06 03:54:50;;;;;;;;;32.75;29.00;;;;;5.56;65.25;102320.44;5075507;28;45621;-60
2021/11/06 03:57:16;;;;;;;;;29.75;27.00;;;;;5.50;65.32;102318.91;5075746;27;65139;-59
2021/11/06 03:59:41;;;;;;;;;32.00;26.75;;;;;5.46;65.38;102322.53;5075779;28;66725;-60
2021/11/06 04:02:06;;;;;;;;;27.75;26.75;;;;;5.42;65.77;102323.53;5075857;28;65342;-60
2021/11/06 04:04:32;;;;;;;;;33.25;26.50;;;;;5.42;65.31;102327.94;5075881;28;64290;-60
2021/11/06 04:06:57;;;;;;;;;31.00;28.75;;;;;5.41;65.60;102328.84;5076183;28;46520;-60
2021/11/06 04:09:23;;;;;;;;;25.50;24.00;;;;;5.40;65.75;102330.56;5076480;28;45243;-60
2021/11/06 04:11:50;;;;;;;;;27.50;26.00;;;;;5.41;65.70;102329.66;5058449;28;45895;-60
2021/11/06 04:14:15;;;;;;;;;29.75;26.25;;;;;5.44;66.02;102324.34;5076493;28;45573;-59
2021/11/06 04:16:40;;;;;;;;;36.00;27.00;;;;;5.45;66.01;102335.63;5075491;28;68386;-60
2021/11/06 04:19:06;;;;;;;;;31.00;29.50;;;;;5.45;66.07;102333.03;5075480;27;66451;-60
2021/11/06 04:21:32;;;;;;;;;32.50;30.50;;;;;5.45;66.21;102328.66;5076351;28;45556;-60
2021/11/06 04:23:57;;;;;;;;;30.75;29.25;;;;;5.47;66.20;102339.03;5076105;28;45545;-61
2021/11/06 04:26:23;;;;;;;;;33.25;27.50;;;;;5.44;66.01;102346.97;5076231;28;46330;-60
2021/11/06 04:28:48;;;;;;;;;29.00;23.50;;;;;5.41;65.92;102342.69;5076027;28;45325;-60
2021/11/06 04:31:14;;;;;;;;;35.50;32.25;;;;;5.39;65.96;102341.06;5075638;28;57411;-60
2021/11/06 04:33:40;;;;;;;;;34.50;33.00;;;;;5.37;65.77;102343.72;5076168;27;45310;-60
2021/11/06 04:36:08;;;;;;;;;33.50;30.00;;;;;5.35;65.74;102346.41;5076146;28;45410;-60
2021/11/06 04:38:33;;;;;;;;;31.75;31.50;;;;;5.32;65.96;102343.91;5076003;28;45262;-60
2021/11/06 04:40:59;;;;;;;;;31.00;26.00;;;;;5.33;65.72;102347.34;5076617;28;45355;-59
2021/11/06 04:43:24;;;;;;;;;33.00;26.25;;;;;5.30;65.70;102343.13;5079551;28;46356;-60
2021/11/06 04:45:49;;;;;;;;;27.50;22.00;;;;;5.31;65.41;102346.56;5079513;27;46210;-60
2021/11/06 04:48:15;;;;;;;;;32.25;28.25;;;;;5.30;65.63;102345.72;5078592;27;71597;-60
2021/11/06 04:50:40;;;;;;;;;31.25;28.00;;;;;5.30;65.51;102339.66;5079607;28;45616;-60
2021/11/06 04:53:05;;;;;;;;;37.25;28.75;;;;;5.30;65.62;102343.13;5077907;28;52203;-59
2021/11/06 04:55:31;;;;;;;;;46.00;29.50;;;;;5.27;65.77;102345.00;5078388;27;72580;-60
2021/11/06 04:57:56;;;;;;;;;33.75;28.75;;;;;5.24;65.55;102338.13;5078433;27;68635;-59
2021/11/06 05:00:22;;;;;;;;;34.50;28.50;;;;;5.22;65.15;102347.75;5078026;28;45441;-60
2021/11/06 05:02:47;;;;;;;;;38.00;29.75;;;;;5.18;65.39;102341.81;5079033;28;52321;-60
2021/11/06 05:05:12;;;;;;;;;36.75;32.75;;;;;5.15;65.73;102347.13;5079068;28;45912;-60
2021/11/06 05:07:38;;;;;;;;;32.25;31.00;;;;;5.12;65.67;102347.25;5077964;28;45422;-60
2021/11/06 05:10:04;;;;;;;;;32.50;28.75;;;;;5.09;66.05;102344.75;5079276;28;45404;-60
2021/11/06 05:12:29;;;;;;;;;43.00;34.50;;;;;5.10;65.99;102350.81;5078037;28;45456;-60
2021/11/06 05:14:54;;;;;;;;;34.50;33.00;;;;;5.08;65.94;102348.25;5078199;28;68576;-60
2021/11/06 05:17:20;;;;;;;;;32.50;30.00;;;;;5.05;65.66;102351.81;5078431;27;66713;-60
2021/11/06 05:19:46;;;;;;;;;35.25;30.75;;;;;5.02;65.59;102343.28;5079084;27;45736;-60
2021/11/06 05:22:12;;;;;;;;;35.25;31.50;;;;;4.98;65.35;102333.88;5079043;27;45547;-61
2021/11/06 05:24:37;;;;;;;;;29.00;26.75;;;;;4.95;65.47;102331.38;5077998;28;64185;-60
2021/11/06 05:27:03;;;;;;;;;37.25;30.00;;;;;4.92;65.43;102331.47;5078683;27;51290;-60
2021/11/06 05:29:28;;;;;;;;;37.50;29.50;;;;;4.86;65.29;102328.19;5078861;27;45241;-59
2021/11/06 05:31:54;;;;;;;;;33.00;30.00;;;;;4.83;65.53;102330.91;5078643;28;49612;-60
2021/11/06 05:34:19;;;;;;;;;33.50;30.00;;;;;4.78;65.41;102330.19;5059753;28;66130;-60
2021/11/06 05:36:45;;;;;;;;;30.00;26.25;;;;;4.79;65.75;102326.69;5077986;28;64073;-60
2021/11/06 05:39:10;;;;;;;;;28.50;28.00;;;;;4.77;65.69;102330.28;5078849;28;45189;-61
2021/11/06 05:41:35;;;;;;;;;31.00;26.25;;;;;4.77;65.76;102327.66;5076687;28;64681;-60
2021/11/06 05:44:01;;;;;;;;;37.00;30.50;;;;;4.75;65.71;102336.38;5078010;27;45298;-60
2021/11/06 05:46:26;;;;;;;;;32.00;29.25;;;;;4.73;65.68;102334.75;5078706;28;45238;-60
2021/11/06 05:48:52;;;;;;;;;31.25;27.25;;;;;4.70;65.28;102334.84;5078445;28;46189;-60
2021/11/06 05:51:17;;;;;;;;;30.00;27.00;;;;;4.66;65.58;102336.69;5076625;28;63303;-59
2021/11/06 05:53:43;;;;;;;;;27.75;26.25;;;;;4.61;65.13;102338.59;5077051;28;45413;-60
2021/11/06 05:56:08;;;;;;;;;33.75;27.00;;;;;4.55;65.20;102344.88;5076956;28;45283;-60
2021/11/06 05:58:33;;;;;;;;;29.75;27.50;;;;;4.54;65.51;102343.19;5077965;28;56222;-60
2021/11/06 06:00:59;;;;;;;;;33.75;29.00;;;;;4.54;65.43;102342.31;5077810;27;55361;-60
2021/11/06 06:03:24;;;;;;;;;27.25;26.25;;;;;4.52;65.56;102342.38;5078020;27;49331;-60
2021/11/06 06:05:50;;;;;;;;;28.75;25.25;;;;;4.54;65.60;102352.72;5077893;28;59516;-60
2021/11/06 06:08:15;;;;;;;;;35.50;30.50;;;;;4.56;65.57;102349.19;5077767;28;62877;-59
2021/11/06 06:10:41;;;;;;;;;36.00;30.00;;;;;4.57;65.93;102355.22;5078055;28;45457;-60
2021/11/06 06:13:06;;;;;;;;;35.25;32.50;;;;;4.61;66.11;102364.63;5078124;28;45402;-59
2021/11/06 06:15:32;;;;;;;;;34.75;31.25;;;;;4.62;66.11;102358.53;5078139;28;45327;-59
2021/11/06 06:17:57;;;;;;;;;36.00;29.50;;;;;4.61;65.97;102354.22;5077784;27;51701;-59
2021/11/06 06:20:22;;;;;;;;;32.75;29.00;;;;;4.58;65.79;102360.41;5077891;28;47817;-60
2021/11/06 06:22:48;;;;;;;;;36.00;29.00;;;;;4.56;65.80;102362.22;5077045;28;67999;-60
2021/11/06 06:25:14;;;;;;;;;33.25;30.25;;;;;4.54;65.65;102364.00;5076479;28;45403;-59
2021/11/06 06:27:39;;;;;;;;;40.25;33.25;;;;;4.54;65.83;102364.00;5076825;27;45312;-60
2021/11/06 06:30:06;;;;;;;;;39.75;34.25;;;;;4.52;66.16;102360.59;5059672;28;45283;-60
2021/11/06 06:32:31;;;;;;;;;37.50;33.25;;;;;4.50;65.96;102361.56;5059721;28;45437;-60
2021/11/06 06:34:57;;;;;;;;;35.25;29.25;;;;;4.46;66.32;102371.22;5077084;27;58194;-59
2021/11/06 06:37:23;;;;;;;;;38.75;32.50;;;;;4.45;66.44;102372.97;5076710;28;68681;-60
2021/11/06 06:39:48;;;;;;;;;33.50;29.75;;;;;4.44;66.47;102376.50;5076485;28;45487;-60
2021/11/06 06:42:14;;;;;;;;;39.75;31.75;;;;;4.43;66.42;102380.00;5076752;28;73812;-59
2021/11/06 06:44:39;;;;;;;;;37.25;30.50;;;;;4.41;66.41;102384.41;5077574;27;45309;-60
2021/11/06 06:47:05;;;;;;;;;30.25;29.25;;;;;4.38;66.36;102388.84;5076451;28;45569;-60
2021/11/06 06:49:30;;;;;;;;;38.00;33.25;;;;;4.35;66.53;102389.78;5077514;28;45623;-60
2021/11/06 06:51:55;;;;;;;;;35.25;32.25;;;;;4.37;66.78;102389.72;5075455;28;70797;-59
2021/11/06 06:54:23;;;;;;;;;29.25;29.00;;;;;4.34;66.83;102387.22;5076910;27;60373;-60
2021/11/06 06:56:48;;;;;;;;;36.75;32.25;;;;;4.31;67.00;102390.78;5077540;28;45425;-60
2021/11/06 06:59:14;;;;;;;;;34.25;30.75;;;;;4.31;66.62;102386.44;5077531;28;45350;-60
2021/11/06 07:01:39;;;;;;;;;34.50;28.00;;;;;4.29;66.60;102388.22;5077277;27;45420;-60
2021/11/06 07:04:05;;;;;;;;;39.50;33.50;;;;;4.26;66.33;102388.31;5075861;28;70303;-60
2021/11/06 07:06:30;;;;;;;;;39.00;30.75;;;;;4.27;66.52;102386.59;5076927;28;50316;-60
2021/11/06 07:08:59;;;;;;;;;45.25;35.00;;;;;4.23;66.89;102385.84;5077340;28;45436;-60
2021/11/06 07:11:24;;;;;;;;;33.75;31.00;;;;;4.23;66.81;102385.84;5076596;27;45648;-60
2021/11/06 07:13:51;;;;;;;;;35.00;32.25;;;;;4.27;66.55;102390.03;5077169;28;45355;-60
2021/11/06 07:16:16;;;;;;;;;38.25;35.25;;;;;4.29;66.61;102385.63;5076106;27;45276;-60
2021/11/06 07:18:41;;;;;;;;;35.00;29.25;;;;;4.30;66.40;102391.69;5077237;28;45462;-60
2021/11/06 07:21:07;;;;;;;;;40.50;33.50;;;;;4.30;66.70;102389.09;5076803;27;46062;-60
2021/11/06 07:23:32;;;;;;;;;34.75;33.00;;;;;4.30;66.65;102391.69;5076132;27;65489;-60
2021/11/06 07:26:01;;;;;;;;;39.25;33.75;;;;;4.30;66.77;102389.94;5077015;28;45261;-60
2021/11/06 07:28:27;;;;;;;;;41.75;36.25;;;;;4.31;66.80;102389.03;5077227;28;45484;-60
2021/11/06 07:30:53;;;;;;;;;43.75;36.25;;;;;4.31;66.96;102383.81;5075509;28;46399;-60
2021/11/06 07:33:18;;;;;;;;;49.00;36.00;;;;;4.34;66.94;102387.22;5076534;28;52943;-60
2021/11/06 07:35:43;;;;;;;;;46.75;36.50;;;;;4.33;67.01;102390.72;5076029;28;65362;-60
2021/11/06 07:38:09;;;;;;;;;55.00;42.25;;;;;4.33;67.29;102391.59;5076163;28;54486;-60
2021/11/06 07:40:34;;;;;;;;;54.75;40.25;;;;;4.35;67.59;102389.78;5058703;28;45456;-59
2021/11/06 07:43:01;;;;;;;;;54.25;43.00;;;;;4.38;67.57;102388.84;5075951;27;65863;-60
2021/11/06 07:45:27;;;;;;;;;56.50;43.75;;;;;4.39;67.75;102383.59;5076837;27;45476;-60
2021/11/06 07:47:52;;;;;;;;;54.75;43.75;;;;;4.41;68.15;102394.81;5075985;27;66712;-60
2021/11/06 07:50:18;;;;;;;;;61.25;48.25;;;;;4.44;68.34;102397.31;5076144;28;56956;-60
2021/11/06 07:52:43;;;;;;;;;61.75;47.50;;;;;4.48;68.28;102403.25;5075209;28;45411;-60
2021/11/06 07:55:09;;;;;;;;;57.00;44.50;;;;;4.52;68.45;102390.97;5076068;27;56123;-60
2021/11/06 07:57:34;;;;;;;;;59.25;48.25;;;;;4.56;68.46;102403.00;5076476;28;45215;-60
2021/11/06 08:00:01;;;;;;;;;63.00;49.75;;;;;4.58;68.38;102386.44;5075807;28;64833;-61
2021/11/06 08:02:26;;;;;;;;;63.50;48.00;;;;;4.63;68.91;102398.44;5058457;28;45264;-60
2021/11/06 08:04:51;;;;;;;;;64.00;48.50;;;;;4.68;68.50;102393.94;5075364;28;45806;-60
2021/11/06 08:07:17;;;;;;;;;66.00;50.75;;;;;4.72;68.15;102400.75;5075791;28;60893;-60
2021/11/06 08:09:43;;;;;;;;;63.25;48.00;;;;;4.75;68.41;102406.69;5076096;28;46512;-60
2021/11/06 08:12:08;;;;;;;;;68.75;52.50;;;;;4.81;68.36;102410.00;5075705;27;53115;-60
2021/11/06 08:14:33;;;;;;;;;64.00;47.25;;;;;4.85;68.31;102402.00;5075223;28;45360;-60
2021/11/06 08:17:00;;;;;;;;;58.50;47.00;;;;;4.93;68.35;102408.72;5078524;27;45281;-60
2021/11/06 08:19:25;;;;;;;;;59.75;46.25;;;;;4.98;68.08;102402.47;5079518;27;45390;-60
2021/11/06 08:21:51;;;;;;;;;59.00;46.50;;;;;5.03;68.02;102402.28;5079734;27;47052;-60
2021/11/06 08:24:18;;;;;;;;;60.00;46.25;;;;;5.08;67.87;102405.59;5078802;27;56040;-60
2021/11/06 08:26:44;;;;;;;;;65.50;50.75;;;;;5.14;67.90;102400.16;5079820;27;45302;-59
2021/11/06 08:29:09;;;;;;;;;70.75;51.50;;;;;5.20;67.59;102404.28;5079645;28;45387;-60
2021/11/06 08:31:34;;;;;;;;;62.50;49.25;;;;;5.29;67.88;102398.75;5079553;28;45337;-60
2021/11/06 08:34:00;;;;;;;;;62.25;49.50;;;;;5.35;67.89;102400.28;5079201;28;58940;-60
2021/11/06 08:36:25;;;;;;;;;57.00;44.25;;;;;5.43;67.74;102406.06;5079620;28;45484;-60
2021/11/06 08:38:50;;;;;;;;;55.00;45.50;;;;;5.53;67.99;102403.13;5078445;27;68684;-60
2021/11/06 08:41:16;;;;;;;;;57.50;46.25;;;;;5.64;68.12;102401.81;5078994;28;57876;-60
2021/11/06 08:43:41;;;;;;;;;56.75;46.75;;;;;5.81;68.22;102396.88;5078889;28;64467;-59
2021/11/06 08:46:07;;;;;;;;;53.25;42.50;;;;;6.05;67.92;102400.31;5078905;28;63271;-60
2021/11/06 08:48:32;;;;;;;;;57.50;45.75;;;;;6.31;67.68;102399.28;5078632;27;68670;-60
2021/11/06 08:50:58;;;;;;;;;59.50;47.50;;;;;6.59;67.26;102402.53;5078206;28;45384;-60
2021/11/06 08:53:24;;;;;;;;;61.50;49.75;;;;;6.82;66.71;102398.94;5079567;28;45303;-60
2021/11/06 08:55:49;;;;;;;;;62.25;51.25;;;;;7.04;66.02;102393.63;5079155;27;45292;-60
2021/11/06 08:58:14;;;;;;;;;70.25;54.00;;;;;7.21;65.47;102395.50;5078505;28;59304;-60
2021/11/06 09:00:42;;;;;;;;;62.50;49.75;;;;;7.36;65.40;102398.34;5078293;27;65325;-60
2021/11/06 09:03:13;;;;;;;;;66.00;51.00;;;;;7.54;65.09;102401.91;5079424;27;45324;-60
2021/11/06 09:05:38;;;;;;;;;59.25;48.75;;;;;7.75;65.06;102404.44;5079194;28;45609;-60
2021/11/06 09:08:04;;;;;;;;;64.75;51.75;;;;;7.98;64.67;102405.97;5079148;28;45432;-60
2021/11/06 09:10:29;;;;;;;;;65.25;52.00;;;;;8.21;64.02;102398.78;5078023;28;68687;-60
2021/11/06 09:12:55;;;;;;;;;71.75;53.75;;;;;8.44;63.90;102402.91;5079181;28;45502;-60
2021/11/06 09:15:21;;;;;;;;;73.00;57.00;;;;;8.66;63.52;102392.22;5079100;28;45424;-61
2021/11/06 09:17:46;;;;;;;;;74.00;57.00;;;;;8.91;63.07;102394.44;5078798;28;45331;-60
2021/11/06 09:20:12;;;;;;;;;75.75;59.00;;;;;9.16;62.41;102397.53;5077716;28;45414;-60
2021/11/06 09:22:37;;;;;;;;;77.50;59.25;;;;;9.38;62.04;102393.78;5077806;28;45273;-61
2021/11/06 09:25:03;;;;;;;;;75.50;57.25;;;;;9.60;61.97;102401.34;5077083;27;45720;-60
2021/11/06 09:27:28;;;;;;;;;75.50;57.50;;;;;9.81;61.14;102391.44;5077554;27;46587;-60
2021/11/06 09:29:54;;;;;;;;;76.25;59.00;;;;;10.02;60.70;102384.13;5075987;28;67670;-60
2021/11/06 09:32:20;;;;;;;;;71.75;57.50;;;;;10.25;61.01;102387.25;5077892;27;62951;-60
2021/11/06 09:34:45;;;;;;;;;75.75;58.50;;;;;10.50;60.57;102389.31;5077361;28;45576;-61
2021/11/06 09:37:11;;;;;;;;;74.25;57.50;;;;;10.76;59.82;102388.72;5078384;28;45420;-60
2021/11/06 09:39:36;;;;;;;;;72.00;56.00;;;;;10.98;59.43;102378.59;5060014;28;61154;-60
2021/11/06 09:42:03;;;;;;;;;70.75;55.25;;;;;11.23;58.91;102382.34;5077184;28;50491;-61
2021/11/06 09:44:30;;;;;;;;;68.00;54.25;;;;;11.46;58.39;102384.50;5077949;28;45571;-61
2021/11/06 09:46:58;;;;;;;;;70.00;54.75;;;;;11.71;58.21;102387.25;5077846;27;46372;-60
2021/11/06 09:49:24;;;;;;;;;68.00;53.50;;;;;11.97;58.18;102383.88;5076716;28;45652;-60
2021/11/06 09:51:49;;;;;;;;;66.50;52.50;;;;;12.20;57.67;102384.22;5077991;27;45327;-61
2021/11/06 09:54:15;;;;;;;;;65.25;51.25;;;;;12.42;56.96;102379.22;5076836;28;45337;-61
2021/11/06 09:56:40;;;;;;;;;68.00;53.00;;;;;12.67;56.25;102374.91;5076380;27;45399;-60
2021/11/06 09:59:06;;;;;;;;;63.00;48.25;;;;;12.89;56.05;102376.91;5076958;27;63808;-61
2021/11/06 10:01:32;;;;;;;;;65.75;51.75;;;;;13.10;55.38;102375.53;5077880;28;45261;-62
2021/11/06 10:03:58;;;;;;;;;70.50;52.00;;;;;13.27;56.06;102371.69;5078096;27;45480;-61
2021/11/06 10:06:25;;;;;;;;;62.50;48.50;;;;;13.40;55.25;102372.50;5077950;28;45369;-60
2021/11/06 10:08:51;;;;;;;;;57.75;45.50;;;;;13.57;55.21;102378.44;5076488;28;45795;-61
2021/11/06 10:11:21;;;;;;;;;56.75;43.50;;;;;13.71;54.62;102369.50;5077907;28;45304;-61
2021/11/06 10:13:59;;;;;;;;;64.25;49.50;;;;;13.86;54.27;102372.81;5078005;28;45468;-60
2021/11/06 10:16:33;;;;;;;;;63.00;48.50;;;;;14.01;53.66;102381.44;5077764;28;45424;-60
2021/11/06 10:19:18;;;;;;;;;56.50;45.75;;;;;14.11;53.69;102377.13;5077829;27;45333;-60
2021/11/06 10:21:46;;;;;;;;;46.75;39.00;;;;;14.22;53.01;102368.41;5076450;27;45452;-61
2021/11/06 10:24:12;;;;;;;;;39.25;34.00;;;;;14.35;51.99;102371.81;5076053;28;45506;-61
2021/11/06 10:26:39;;;;;;;;;37.00;33.00;;;;;14.51;51.32;102368.00;5076089;28;46668;-61
2021/11/06 10:29:11;;;;;;;;;39.50;32.25;;;;;14.68;51.28;102372.00;5076991;28;45280;-61
2021/11/06 10:31:57;;;;;;;;;38.75;32.00;;;;;14.79;50.14;102369.41;5077348;27;45319;-62
2021/11/06 10:34:23;;;;;;;;;35.25;30.00;;;;;14.91;50.19;102367.59;5077485;28;45401;-61
2021/11/06 10:37:04;;;;;;;;;36.25;32.00;;;;;15.05;50.18;102363.03;5077218;27;45299;-62
2021/11/06 10:39:29;;;;;;;;;37.25;32.00;;;;;15.13;49.67;102361.47;5076205;28;45902;-61
2021/11/06 10:42:08;;;;;;;;;31.75;28.75;;;;;15.16;49.71;102359.53;5077543;28;45321;-60
2021/11/06 10:44:34;;;;;;;;;40.00;32.00;;;;;15.11;49.05;102354.63;5076428;28;45245;-61
2021/11/06 10:46:59;;;;;;;;;37.25;30.50;;;;;15.07;48.43;102354.03;5075050;28;65024;-60
2021/11/06 10:49:33;;;;;;;;;28.75;28.50;;;;;15.00;47.84;102352.81;5076454;28;69270;-60
2021/11/06 10:52:05;;;;;;;;;35.25;31.25;;;;;14.89;47.92;102351.00;5076090;27;45212;-61
2021/11/06 10:54:31;;;;;;;;;35.00;30.75;;;;;14.78;48.56;102351.84;5076252;27;45445;-61
2021/11/06 10:56:57;;;;;;;;;28.25;26.00;;;;;14.64;48.54;102342.31;5076637;28;59603;-61
2021/11/06 10:59:23;;;;;;;;;29.50;29.00;;;;;14.51;48.87;102346.84;5077018;28;45260;-61
2021/11/06 11:01:53;;;;;;;;;34.00;30.25;;;;;14.36;48.83;102340.94;5075811;27;45328;-61
2021/11/06 11:04:19;;;;;;;;;30.50;28.00;;;;;14.19;48.79;102340.38;5077007;27;45349;-61
2021/11/06 11:06:52;;;;;;;;;33.50;26.25;;;;;14.05;49.27;102337.94;5076891;28;46273;-61
2021/11/06 11:09:25;;;;;;;;;35.25;29.00;;;;;13.93;48.94;102337.06;5076804;27;45925;-61
2021/11/06 11:11:54;;;;;;;;;30.25;28.25;;;;;13.79;49.73;102340.72;5077105;28;45270;-61